EGTC - Cranfield
Distance from station: E 5mi, 14km
Updated: 10/23/2017 9:20am
Mostly Cloudy
Mostly Cloudy
 Wind from SW
Wind: SW 9 mph , 15 km/h
Temperature: 59°F , 15°C
Dew Point: 59°F , 15°C
Humidity: 100%
Barometer: 29.97 inHg , 1015 hPa
Clouds: Mostly Cloudy
Visibility: 4 miles , 6 km
Cloud details: Mostly Cloudy 500 ft
2017/10/23 16:20 EGTC 231620Z 22008KT 6000 BKN005 15/15 Q1015